Forside
METAR-TAF:

METAR-TAF

Lufthavne :

Benton Harbor, Michigan, USA

Breddekreds: 42-07-43N, længdekreds: 086-25-42W, højde: 196 m

Aktuelle vejr

Denne rapport blev lavet for 27 minutter siden, kl. 13:53 UTC
Vind 3 kt fra østnordøst
Temperatur 3°C
Fugtighed 81%
Tryk 1017 hPa
Sigt: 16.1 km
Overskyet i en højde af 1100 ft

METAR: KBEH 311353Z AUTO 07003KT 10SM OVC011 03/00 A3004 RMK AO2 SLP179 T00330000

Tid: 10:20 (14:20 UTC)


TAF: fraværende

Vejrobservationer og prognoser fra mere end 4000 lufthavne (METAR og TAF).

De gule og røde prikker repræsenterer de meteorologiske stationer.

Flyt musen over at se navnet på stationen.

Så klik over at se vejr observationer og prognoser.

At skifte det kort: Klik på de grønne knapper med et sort kors for at zoome ind; på den grønne knap med en bindestreg for at zoome ud; eller på de grønne pile for tilstødende kort.


METAR-TAF: